<?xml version="1.0" encoding="utf-8"?>
<gpx xmlns:xsi="http://www.w3.org/2001/XMLSchema-instance" xmlns:xsd="http://www.w3.org/2001/XMLSchema" version="1.1" creator="Shapelink.com" xmlns="http://www.topografix.com/GPX/1/1" xmlns:gpxtpx="http://www.garmin.com/xmlschemas/TrackPointExtension/v1">
  <metadata>
    <name>Löpning 4.01 km, 2020-07-23</name>
    <desc></desc>
    <author><name>Marian Moron</name></author> 
    <time>2020-07-23T19:04:22Z</time>
  </metadata>
  <trk>
    <name>Löpning 4.01 km, 2020-07-23</name>
    <trkseg>
      <trkpt lat="51.215216472916" lon="4.482663002587">
        <ele>4</ele>
        <time>2020-07-23T19:04:22Z</time>
      </trkpt>
      <trkpt lat="51.215037351713" lon="4.482574322085">
        <ele>0</ele>
        <time>2020-07-23T19:04:29Z</time>
      </trkpt>
      <trkpt lat="51.214846412031" lon="4.482628301521">
        <ele>0</ele>
        <time>2020-07-23T19:04:37Z</time>
      </trkpt>
      <trkpt lat="51.21470232717" lon="4.482821839592">
        <ele>0</ele>
        <time>2020-07-23T19:04:45Z</time>
      </trkpt>
      <trkpt lat="51.214635691065" lon="4.483086120899">
        <ele>0</ele>
        <time>2020-07-23T19:04:52Z</time>
      </trkpt>
      <trkpt lat="51.214636193979" lon="4.483386192919">
        <ele>0</ele>
        <time>2020-07-23T19:04:59Z</time>
      </trkpt>
      <trkpt lat="51.214655975263" lon="4.483689450061">
        <ele>0</ele>
        <time>2020-07-23T19:05:06Z</time>
      </trkpt>
      <trkpt lat="51.214682713524" lon="4.483975859584">
        <ele>0</ele>
        <time>2020-07-23T19:05:13Z</time>
      </trkpt>
      <trkpt lat="51.214704925559" lon="4.48426034127">
        <ele>0</ele>
        <time>2020-07-23T19:05:20Z</time>
      </trkpt>
      <trkpt lat="51.214750439276" lon="4.484570639208">
        <ele>0.2</ele>
        <time>2020-07-23T19:05:28Z</time>
      </trkpt>
      <trkpt lat="51.214875329586" lon="4.48478923916">
        <ele>0.6</ele>
        <time>2020-07-23T19:05:36Z</time>
      </trkpt>
      <trkpt lat="51.215052858228" lon="4.48488898377">
        <ele>1</ele>
        <time>2020-07-23T19:05:44Z</time>
      </trkpt>
      <trkpt lat="51.215241199521" lon="4.484851600496">
        <ele>2.8</ele>
        <time>2020-07-23T19:05:52Z</time>
      </trkpt>
      <trkpt lat="51.215380506699" lon="4.484665354678">
        <ele>3.6</ele>
        <time>2020-07-23T19:05:59Z</time>
      </trkpt>
      <trkpt lat="51.215480754223" lon="4.484390763634">
        <ele>6.2</ele>
        <time>2020-07-23T19:06:07Z</time>
      </trkpt>
      <trkpt lat="51.215479161662" lon="4.484084489008">
        <ele>6.6</ele>
        <time>2020-07-23T19:06:15Z</time>
      </trkpt>
      <trkpt lat="51.215459631835" lon="4.483792715069">
        <ele>6.6</ele>
        <time>2020-07-23T19:06:22Z</time>
      </trkpt>
      <trkpt lat="51.215444209139" lon="4.483475711611">
        <ele>6.6</ele>
        <time>2020-07-23T19:06:30Z</time>
      </trkpt>
      <trkpt lat="51.215438090352" lon="4.483157953782">
        <ele>5.8</ele>
        <time>2020-07-23T19:06:38Z</time>
      </trkpt>
      <trkpt lat="51.215381680165" lon="4.48287062225">
        <ele>5.4</ele>
        <time>2020-07-23T19:06:46Z</time>
      </trkpt>
      <trkpt lat="51.215222424065" lon="4.482690495219">
        <ele>5</ele>
        <time>2020-07-23T19:06:54Z</time>
      </trkpt>
      <trkpt lat="51.215033663677" lon="4.482602652907">
        <ele>4</ele>
        <time>2020-07-23T19:07:02Z</time>
      </trkpt>
      <trkpt lat="51.214848507506" lon="4.482659314551">
        <ele>2</ele>
        <time>2020-07-23T19:07:10Z</time>
      </trkpt>
      <trkpt lat="51.214716492581" lon="4.482867520947">
        <ele>1.6</ele>
        <time>2020-07-23T19:07:18Z</time>
      </trkpt>
      <trkpt lat="51.214639714377" lon="4.483125599648">
        <ele>1</ele>
        <time>2020-07-23T19:07:25Z</time>
      </trkpt>
      <trkpt lat="51.214639546739" lon="4.483424246745">
        <ele>0.2</ele>
        <time>2020-07-23T19:07:32Z</time>
      </trkpt>
      <trkpt lat="51.214639882015" lon="4.48371467958">
        <ele>0.2</ele>
        <time>2020-07-23T19:07:39Z</time>
      </trkpt>
      <trkpt lat="51.214620519826" lon="4.484032185952">
        <ele>0.8</ele>
        <time>2020-07-23T19:07:47Z</time>
      </trkpt>
      <trkpt lat="51.214637702721" lon="4.484323037882">
        <ele>1.2</ele>
        <time>2020-07-23T19:07:55Z</time>
      </trkpt>
      <trkpt lat="51.21468388699" lon="4.484621768798">
        <ele>0.8</ele>
        <time>2020-07-23T19:08:03Z</time>
      </trkpt>
      <trkpt lat="51.214812549155" lon="4.484847325727">
        <ele>0.6</ele>
        <time>2020-07-23T19:08:11Z</time>
      </trkpt>
      <trkpt lat="51.215009859081" lon="4.484922092275">
        <ele>1</ele>
        <time>2020-07-23T19:08:18Z</time>
      </trkpt>
      <trkpt lat="51.21520188841" lon="4.484882529707">
        <ele>3.2</ele>
        <time>2020-07-23T19:08:25Z</time>
      </trkpt>
      <trkpt lat="51.215361731243" lon="4.484718076829">
        <ele>5</ele>
        <time>2020-07-23T19:08:32Z</time>
      </trkpt>
      <trkpt lat="51.215462984595" lon="4.484483048353">
        <ele>6.4</ele>
        <time>2020-07-23T19:08:39Z</time>
      </trkpt>
      <trkpt lat="51.215474048703" lon="4.484167637456">
        <ele>6.4</ele>
        <time>2020-07-23T19:08:47Z</time>
      </trkpt>
      <trkpt lat="51.215441024017" lon="4.483853316206">
        <ele>6.6</ele>
        <time>2020-07-23T19:08:55Z</time>
      </trkpt>
      <trkpt lat="51.215416213593" lon="4.483528182305">
        <ele>6.4</ele>
        <time>2020-07-23T19:09:03Z</time>
      </trkpt>
      <trkpt lat="51.215406155313" lon="4.48321595653">
        <ele>6.6</ele>
        <time>2020-07-23T19:09:10Z</time>
      </trkpt>
      <trkpt lat="51.21533935157" lon="4.482958045467">
        <ele>5.4</ele>
        <time>2020-07-23T19:09:18Z</time>
      </trkpt>
      <trkpt lat="51.215214209803" lon="4.482741205714">
        <ele>5</ele>
        <time>2020-07-23T19:09:25Z</time>
      </trkpt>
      <trkpt lat="51.215049421649" lon="4.482593684274">
        <ele>5.8</ele>
        <time>2020-07-23T19:09:33Z</time>
      </trkpt>
      <trkpt lat="51.214874659034" lon="4.482529059825">
        <ele>4.2</ele>
        <time>2020-07-23T19:09:41Z</time>
      </trkpt>
      <trkpt lat="51.214703500636" lon="4.482688148287">
        <ele>1</ele>
        <time>2020-07-23T19:09:49Z</time>
      </trkpt>
      <trkpt lat="51.214586740769" lon="4.482943796237">
        <ele>0</ele>
        <time>2020-07-23T19:09:56Z</time>
      </trkpt>
      <trkpt lat="51.214546507649" lon="4.483245963732">
        <ele>0</ele>
        <time>2020-07-23T19:10:03Z</time>
      </trkpt>
      <trkpt lat="51.214591183176" lon="4.48372892881">
        <ele>0</ele>
        <time>2020-07-23T19:10:15Z</time>
      </trkpt>
      <trkpt lat="51.21541143591" lon="4.483073548049">
        <ele>0.6</ele>
        <time>2020-07-23T19:17:19Z</time>
      </trkpt>
      <trkpt lat="51.21542317057" lon="4.483485518434">
        <ele>0.6</ele>
        <time>2020-07-23T19:17:25Z</time>
      </trkpt>
      <trkpt lat="51.215421661828" lon="4.483788859395">
        <ele>0.4</ele>
        <time>2020-07-23T19:17:30Z</time>
      </trkpt>
      <trkpt lat="51.215440940198" lon="4.484126566146">
        <ele>0.6</ele>
        <time>2020-07-23T19:17:36Z</time>
      </trkpt>
      <trkpt lat="51.215435911058" lon="4.484466703648">
        <ele>1</ele>
        <time>2020-07-23T19:17:42Z</time>
      </trkpt>
      <trkpt lat="51.215350667135" lon="4.484742384339">
        <ele>1.2</ele>
        <time>2020-07-23T19:17:47Z</time>
      </trkpt>
      <trkpt lat="51.215197362184" lon="4.484908765054">
        <ele>1.2</ele>
        <time>2020-07-23T19:17:52Z</time>
      </trkpt>
      <trkpt lat="51.21501078109" lon="4.484961822481">
        <ele>1.8</ele>
        <time>2020-07-23T19:17:57Z</time>
      </trkpt>
      <trkpt lat="51.214832749534" lon="4.484892420349">
        <ele>2</ele>
        <time>2020-07-23T19:18:02Z</time>
      </trkpt>
      <trkpt lat="51.214687994121" lon="4.484712544775">
        <ele>2.6</ele>
        <time>2020-07-23T19:18:07Z</time>
      </trkpt>
      <trkpt lat="51.214593530108" lon="4.484409036176">
        <ele>3</ele>
        <time>2020-07-23T19:18:13Z</time>
      </trkpt>
      <trkpt lat="51.214572072444" lon="4.484115669676">
        <ele>2</ele>
        <time>2020-07-23T19:18:18Z</time>
      </trkpt>
      <trkpt lat="51.214556565929" lon="4.483820123882">
        <ele>1.4</ele>
        <time>2020-07-23T19:18:23Z</time>
      </trkpt>
      <trkpt lat="51.21454307107" lon="4.483499348569">
        <ele>1.2</ele>
        <time>2020-07-23T19:18:29Z</time>
      </trkpt>
      <trkpt lat="51.214532845152" lon="4.483167928243">
        <ele>0.2</ele>
        <time>2020-07-23T19:18:35Z</time>
      </trkpt>
      <trkpt lat="51.214581292534" lon="4.482870203155">
        <ele>0</ele>
        <time>2020-07-23T19:18:41Z</time>
      </trkpt>
      <trkpt lat="51.214705428473" lon="4.482658979275">
        <ele>0</ele>
        <time>2020-07-23T19:18:46Z</time>
      </trkpt>
      <trkpt lat="51.214880274907" lon="4.482526796712">
        <ele>0</ele>
        <time>2020-07-23T19:18:52Z</time>
      </trkpt>
      <trkpt lat="51.215080015584" lon="4.482583458356">
        <ele>0</ele>
        <time>2020-07-23T19:18:58Z</time>
      </trkpt>
      <trkpt lat="51.215261818995" lon="4.48273818823">
        <ele>0</ele>
        <time>2020-07-23T19:19:04Z</time>
      </trkpt>
      <trkpt lat="51.21539215754" lon="4.483002888632">
        <ele>0</ele>
        <time>2020-07-23T19:19:10Z</time>
      </trkpt>
      <trkpt lat="51.21543071428" lon="4.483333722225">
        <ele>0</ele>
        <time>2020-07-23T19:19:16Z</time>
      </trkpt>
      <trkpt lat="51.21544663989" lon="4.483627675458">
        <ele>0</ele>
        <time>2020-07-23T19:19:21Z</time>
      </trkpt>
      <trkpt lat="51.215462146405" lon="4.483961777992">
        <ele>0</ele>
        <time>2020-07-23T19:19:27Z</time>
      </trkpt>
      <trkpt lat="51.21547430016" lon="4.484282469486">
        <ele>0</ele>
        <time>2020-07-23T19:19:33Z</time>
      </trkpt>
      <trkpt lat="51.215435240506" lon="4.484564101326">
        <ele>0</ele>
        <time>2020-07-23T19:19:38Z</time>
      </trkpt>
      <trkpt lat="51.215317726268" lon="4.484812037928">
        <ele>0</ele>
        <time>2020-07-23T19:19:43Z</time>
      </trkpt>
      <trkpt lat="51.215147070784" lon="4.484956374246">
        <ele>0</ele>
        <time>2020-07-23T19:19:48Z</time>
      </trkpt>
      <trkpt lat="51.214961663156" lon="4.484979592109">
        <ele>0</ele>
        <time>2020-07-23T19:19:53Z</time>
      </trkpt>
      <trkpt lat="51.214790840034" lon="4.484865346812">
        <ele>0.4</ele>
        <time>2020-07-23T19:19:58Z</time>
      </trkpt>
      <trkpt lat="51.214663099878" lon="4.484659990262">
        <ele>0.6</ele>
        <time>2020-07-23T19:20:03Z</time>
      </trkpt>
      <trkpt lat="51.214588836244" lon="4.484358996233">
        <ele>1.4</ele>
        <time>2020-07-23T19:20:09Z</time>
      </trkpt>
      <trkpt lat="51.214569809331" lon="4.484036376902">
        <ele>1.6</ele>
        <time>2020-07-23T19:20:15Z</time>
      </trkpt>
      <trkpt lat="51.214553632264" lon="4.483711997372">
        <ele>0.2</ele>
        <time>2020-07-23T19:20:21Z</time>
      </trkpt>
      <trkpt lat="51.214536533188" lon="4.483398765769">
        <ele>1</ele>
        <time>2020-07-23T19:20:27Z</time>
      </trkpt>
      <trkpt lat="51.214526055813" lon="4.483106237459">
        <ele>0.6</ele>
        <time>2020-07-23T19:20:33Z</time>
      </trkpt>
      <trkpt lat="51.214601828189" lon="4.482807003629">
        <ele>0</ele>
        <time>2020-07-23T19:20:39Z</time>
      </trkpt>
      <trkpt lat="51.214760665194" lon="4.482595193016">
        <ele>0</ele>
        <time>2020-07-23T19:20:45Z</time>
      </trkpt>
      <trkpt lat="51.214952526885" lon="4.482541381218">
        <ele>0</ele>
        <time>2020-07-23T19:20:51Z</time>
      </trkpt>
      <trkpt lat="51.215151429372" lon="4.482649675366">
        <ele>0</ele>
        <time>2020-07-23T19:20:57Z</time>
      </trkpt>
      <trkpt lat="51.215303393219" lon="4.482820079393">
        <ele>0</ele>
        <time>2020-07-23T19:21:02Z</time>
      </trkpt>
      <trkpt lat="51.215382434536" lon="4.483108416753">
        <ele>0</ele>
        <time>2020-07-23T19:21:07Z</time>
      </trkpt>
      <trkpt lat="51.215417051783" lon="4.483394742457">
        <ele>1.2</ele>
        <time>2020-07-23T19:21:12Z</time>
      </trkpt>
      <trkpt lat="51.215442365121" lon="4.48368282836">
        <ele>4.2</ele>
        <time>2020-07-23T19:21:17Z</time>
      </trkpt>
      <trkpt lat="51.215464996251" lon="4.484016511799">
        <ele>5.8</ele>
        <time>2020-07-23T19:21:23Z</time>
      </trkpt>
      <trkpt lat="51.21543071428" lon="4.484543984766">
        <ele>3</ele>
        <time>2020-07-23T19:21:34Z</time>
      </trkpt>
      <trkpt lat="51.215401209992" lon="4.484543314214">
        <ele>3.2</ele>
        <time>2020-07-23T19:21:36Z</time>
      </trkpt>
      <trkpt lat="51.215365503098" lon="4.482954273612">
        <ele>0</ele>
        <time>2020-07-23T19:28:07Z</time>
      </trkpt>
      <trkpt lat="51.215350164221" lon="4.482922506211">
        <ele>0</ele>
        <time>2020-07-23T19:28:08Z</time>
      </trkpt>
      <trkpt lat="51.215215383269" lon="4.482716227652">
        <ele>0</ele>
        <time>2020-07-23T19:28:14Z</time>
      </trkpt>
      <trkpt lat="51.215045482156" lon="4.482574238266">
        <ele>0</ele>
        <time>2020-07-23T19:28:22Z</time>
      </trkpt>
      <trkpt lat="51.214852027904" lon="4.482625116399">
        <ele>0</ele>
        <time>2020-07-23T19:28:29Z</time>
      </trkpt>
      <trkpt lat="51.214700483152" lon="4.482802142127">
        <ele>0</ele>
        <time>2020-07-23T19:28:36Z</time>
      </trkpt>
      <trkpt lat="51.214609958632" lon="4.483061813389">
        <ele>0</ele>
        <time>2020-07-23T19:28:43Z</time>
      </trkpt>
      <trkpt lat="51.214598726886" lon="4.483351994767">
        <ele>0</ele>
        <time>2020-07-23T19:28:50Z</time>
      </trkpt>
      <trkpt lat="51.214609204261" lon="4.483644187801">
        <ele>0</ele>
        <time>2020-07-23T19:28:57Z</time>
      </trkpt>
      <trkpt lat="51.214614484858" lon="4.48396278382">
        <ele>0</ele>
        <time>2020-07-23T19:29:05Z</time>
      </trkpt>
      <trkpt lat="51.214632589762" lon="4.48428800154">
        <ele>0</ele>
        <time>2020-07-23T19:29:13Z</time>
      </trkpt>
      <trkpt lat="51.214688497035" lon="4.484592432148">
        <ele>0</ele>
        <time>2020-07-23T19:29:21Z</time>
      </trkpt>
      <trkpt lat="51.214808358205" lon="4.484809104263">
        <ele>0</ele>
        <time>2020-07-23T19:29:28Z</time>
      </trkpt>
      <trkpt lat="51.214993346738" lon="4.484896024566">
        <ele>0</ele>
        <time>2020-07-23T19:29:35Z</time>
      </trkpt>
      <trkpt lat="51.21518093366" lon="4.484846487537">
        <ele>0</ele>
        <time>2020-07-23T19:29:42Z</time>
      </trkpt>
      <trkpt lat="51.21533013148" lon="4.484666276687">
        <ele>0</ele>
        <time>2020-07-23T19:29:49Z</time>
      </trkpt>
      <trkpt lat="51.215424763131" lon="4.4843751733">
        <ele>0</ele>
        <time>2020-07-23T19:29:57Z</time>
      </trkpt>
      <trkpt lat="51.215416213593" lon="4.48405917567">
        <ele>0</ele>
        <time>2020-07-23T19:30:05Z</time>
      </trkpt>
      <trkpt lat="51.215390816436" lon="4.483748374818">
        <ele>0</ele>
        <time>2020-07-23T19:30:13Z</time>
      </trkpt>
      <trkpt lat="51.215370951333" lon="4.483431874274">
        <ele>0</ele>
        <time>2020-07-23T19:30:21Z</time>
      </trkpt>
      <trkpt lat="51.215345973271" lon="4.483122749802">
        <ele>0</ele>
        <time>2020-07-23T19:30:29Z</time>
      </trkpt>
      <trkpt lat="51.215285455953" lon="4.482837765202">
        <ele>0</ele>
        <time>2020-07-23T19:30:37Z</time>
      </trkpt>
      <trkpt lat="51.215143466567" lon="4.482640539095">
        <ele>0</ele>
        <time>2020-07-23T19:30:45Z</time>
      </trkpt>
      <trkpt lat="51.214956885473" lon="4.482590247695">
        <ele>0</ele>
        <time>2020-07-23T19:30:54Z</time>
      </trkpt>
      <trkpt lat="51.214778686279" lon="4.482717317299">
        <ele>0</ele>
        <time>2020-07-23T19:31:03Z</time>
      </trkpt>
      <trkpt lat="51.214652790141" lon="4.482959973304">
        <ele>0</ele>
        <time>2020-07-23T19:31:11Z</time>
      </trkpt>
      <trkpt lat="51.214617167066" lon="4.48326121879">
        <ele>0</ele>
        <time>2020-07-23T19:31:19Z</time>
      </trkpt>
      <trkpt lat="51.21462186093" lon="4.48357470185">
        <ele>0</ele>
        <time>2020-07-23T19:31:27Z</time>
      </trkpt>
      <trkpt lat="51.214630745744" lon="4.483870499101">
        <ele>0</ele>
        <time>2020-07-23T19:31:35Z</time>
      </trkpt>
      <trkpt lat="51.214645749345" lon="4.484197979934">
        <ele>0</ele>
        <time>2020-07-23T19:31:43Z</time>
      </trkpt>
      <trkpt lat="51.214683803171" lon="4.484491430253">
        <ele>0</ele>
        <time>2020-07-23T19:31:50Z</time>
      </trkpt>
      <trkpt lat="51.214803245246" lon="4.48474062414">
        <ele>0</ele>
        <time>2020-07-23T19:31:57Z</time>
      </trkpt>
      <trkpt lat="51.214967027572" lon="4.484858306016">
        <ele>0</ele>
        <time>2020-07-23T19:32:03Z</time>
      </trkpt>
      <trkpt lat="51.215168444629" lon="4.484855120894">
        <ele>0</ele>
        <time>2020-07-23T19:32:10Z</time>
      </trkpt>
      <trkpt lat="51.215340860312" lon="4.484674826225">
        <ele>0</ele>
        <time>2020-07-23T19:32:17Z</time>
      </trkpt>
      <trkpt lat="51.215430211366" lon="4.484379280431">
        <ele>0</ele>
        <time>2020-07-23T19:32:24Z</time>
      </trkpt>
      <trkpt lat="51.215407747874" lon="4.484095469297">
        <ele>0</ele>
        <time>2020-07-23T19:32:31Z</time>
      </trkpt>
      <trkpt lat="51.215386793124" lon="4.48379263125">
        <ele>0</ele>
        <time>2020-07-23T19:32:38Z</time>
      </trkpt>
      <trkpt lat="51.215362737071" lon="4.483480573113">
        <ele>0</ele>
        <time>2020-07-23T19:32:45Z</time>
      </trkpt>
      <trkpt lat="51.21534857166" lon="4.483193241581">
        <ele>0</ele>
        <time>2020-07-23T19:32:52Z</time>
      </trkpt>
      <trkpt lat="51.215298699355" lon="4.48291253175">
        <ele>0</ele>
        <time>2020-07-23T19:32:59Z</time>
      </trkpt>
      <trkpt lat="51.215181268936" lon="4.482674569609">
        <ele>0</ele>
        <time>2020-07-23T19:33:08Z</time>
      </trkpt>
      <trkpt lat="51.214995274575" lon="4.482591169704">
        <ele>0</ele>
        <time>2020-07-23T19:33:17Z</time>
      </trkpt>
      <trkpt lat="51.214816572467" lon="4.482623523838">
        <ele>0</ele>
        <time>2020-07-23T19:33:24Z</time>
      </trkpt>
      <trkpt lat="51.214650107933" lon="4.48275830479">
        <ele>0</ele>
        <time>2020-07-23T19:33:32Z</time>
      </trkpt>
      <trkpt lat="51.214550028047" lon="4.483036416232">
        <ele>0</ele>
        <time>2020-07-23T19:33:39Z</time>
      </trkpt>
      <trkpt lat="51.214547597296" lon="4.48339197643">
        <ele>0</ele>
        <time>2020-07-23T19:33:48Z</time>
      </trkpt>
      <trkpt lat="51.215411016815" lon="4.483178405618">
        <ele>0</ele>
        <time>2020-07-23T19:42:08Z</time>
      </trkpt>
      <trkpt lat="51.215412609376" lon="4.483248394483">
        <ele>0</ele>
        <time>2020-07-23T19:42:10Z</time>
      </trkpt>
      <trkpt lat="51.215419482534" lon="4.483534720187">
        <ele>0</ele>
        <time>2020-07-23T19:42:15Z</time>
      </trkpt>
      <trkpt lat="51.215431049556" lon="4.483823057547">
        <ele>0</ele>
        <time>2020-07-23T19:42:20Z</time>
      </trkpt>
      <trkpt lat="51.215448819184" lon="4.484115753495">
        <ele>0</ele>
        <time>2020-07-23T19:42:25Z</time>
      </trkpt>
      <trkpt lat="51.215442532759" lon="4.484406773063">
        <ele>0</ele>
        <time>2020-07-23T19:42:30Z</time>
      </trkpt>
      <trkpt lat="51.215348823117" lon="4.484712460956">
        <ele>1</ele>
        <time>2020-07-23T19:42:36Z</time>
      </trkpt>
      <trkpt lat="51.215175317787" lon="4.48489317472">
        <ele>0.8</ele>
        <time>2020-07-23T19:42:42Z</time>
      </trkpt>
      <trkpt lat="51.214967865762" lon="4.484906669579">
        <ele>0</ele>
        <time>2020-07-23T19:42:48Z</time>
      </trkpt>
      <trkpt lat="51.214774243872" lon="4.484800722363">
        <ele>0</ele>
        <time>2020-07-23T19:42:54Z</time>
      </trkpt>
      <trkpt lat="51.21464616844" lon="4.484583212058">
        <ele>0.6</ele>
        <time>2020-07-23T19:43:00Z</time>
      </trkpt>
      <trkpt lat="51.214590177348" lon="4.484269142265">
        <ele>0.8</ele>
        <time>2020-07-23T19:43:06Z</time>
      </trkpt>
      <trkpt lat="51.214570563702" lon="4.483955323929">
        <ele>0.2</ele>
        <time>2020-07-23T19:43:12Z</time>
      </trkpt>
      <trkpt lat="51.214555057187" lon="4.483631447313">
        <ele>0</ele>
        <time>2020-07-23T19:43:19Z</time>
      </trkpt>
      <trkpt lat="51.214537874292" lon="4.483304134118">
        <ele>0</ele>
        <time>2020-07-23T19:43:26Z</time>
      </trkpt>
      <trkpt lat="51.214537287559" lon="4.483018898061">
        <ele>0</ele>
        <time>2020-07-23T19:43:32Z</time>
      </trkpt>
      <trkpt lat="51.214611132098" lon="4.48275662841">
        <ele>0</ele>
        <time>2020-07-23T19:43:38Z</time>
      </trkpt>
      <trkpt lat="51.214759491728" lon="4.482583290718">
        <ele>0</ele>
        <time>2020-07-23T19:43:44Z</time>
      </trkpt>
      <trkpt lat="51.21493785856" lon="4.482504919953">
        <ele>0</ele>
        <time>2020-07-23T19:43:50Z</time>
      </trkpt>
      <trkpt lat="51.215122595636" lon="4.482534340422">
        <ele>0</ele>
        <time>2020-07-23T19:43:56Z</time>
      </trkpt>
      <trkpt lat="51.21527145818" lon="4.482694183255">
        <ele>0</ele>
        <time>2020-07-23T19:44:02Z</time>
      </trkpt>
      <trkpt lat="51.215377153939" lon="4.482932229215">
        <ele>0</ele>
        <time>2020-07-23T19:44:08Z</time>
      </trkpt>
      <trkpt lat="51.215428032072" lon="4.48325116051">
        <ele>0</ele>
        <time>2020-07-23T19:44:15Z</time>
      </trkpt>
      <trkpt lat="51.215439263818" lon="4.483572690194">
        <ele>0.4</ele>
        <time>2020-07-23T19:44:22Z</time>
      </trkpt>
      <trkpt lat="51.215448819184" lon="4.483883239589">
        <ele>1.6</ele>
        <time>2020-07-23T19:44:29Z</time>
      </trkpt>
      <trkpt lat="51.215462230224" lon="4.484194208079">
        <ele>1.8</ele>
        <time>2020-07-23T19:44:36Z</time>
      </trkpt>
      <trkpt lat="51.215438006533" lon="4.484501320895">
        <ele>1.2</ele>
        <time>2020-07-23T19:44:43Z</time>
      </trkpt>
      <trkpt lat="51.215325437616" lon="4.484734589172">
        <ele>0.4</ele>
        <time>2020-07-23T19:44:49Z</time>
      </trkpt>
      <trkpt lat="51.215169450457" lon="4.484889738141">
        <ele>0.4</ele>
        <time>2020-07-23T19:44:55Z</time>
      </trkpt>
      <trkpt lat="51.214968955409" lon="4.484931480003">
        <ele>0.8</ele>
        <time>2020-07-23T19:45:02Z</time>
      </trkpt>
      <trkpt lat="51.214801987961" lon="4.484824191683">
        <ele>1.2</ele>
        <time>2020-07-23T19:45:08Z</time>
      </trkpt>
      <trkpt lat="51.214657819281" lon="4.484623109902">
        <ele>2.2</ele>
        <time>2020-07-23T19:45:14Z</time>
      </trkpt>
      <trkpt lat="51.214578526507" lon="4.484337873845">
        <ele>2</ele>
        <time>2020-07-23T19:45:21Z</time>
      </trkpt>
      <trkpt lat="51.214572323901" lon="4.484018607274">
        <ele>1.8</ele>
        <time>2020-07-23T19:45:28Z</time>
      </trkpt>
      <trkpt lat="51.21457659867" lon="4.483702609644">
        <ele>0</ele>
        <time>2020-07-23T19:45:35Z</time>
      </trkpt>
      <trkpt lat="51.214569725512" lon="4.483387031109">
        <ele>0</ele>
        <time>2020-07-23T19:45:42Z</time>
      </trkpt>
      <trkpt lat="51.214572826815" lon="4.483068267452">
        <ele>0</ele>
        <time>2020-07-23T19:45:49Z</time>
      </trkpt>
      <trkpt lat="51.214646252259" lon="4.482784204861">
        <ele>0</ele>
        <time>2020-07-23T19:45:56Z</time>
      </trkpt>
      <trkpt lat="51.2147920135" lon="4.482583709813">
        <ele>0</ele>
        <time>2020-07-23T19:46:05Z</time>
      </trkpt>
      <trkpt lat="51.21497138616" lon="4.48251774426">
        <ele>0</ele>
        <time>2020-07-23T19:46:12Z</time>
      </trkpt>
      <trkpt lat="51.215160649462" lon="4.482584128908">
        <ele>0</ele>
        <time>2020-07-23T19:46:19Z</time>
      </trkpt>
      <trkpt lat="51.215318061544" lon="4.482778588988">
        <ele>0</ele>
        <time>2020-07-23T19:46:26Z</time>
      </trkpt>
      <trkpt lat="51.215404227476" lon="4.483063741226">
        <ele>0</ele>
        <time>2020-07-23T19:46:33Z</time>
      </trkpt>
      <trkpt lat="51.215436078696" lon="4.483378984485">
        <ele>0</ele>
        <time>2020-07-23T19:46:40Z</time>
      </trkpt>
      <trkpt lat="51.215455524704" lon="4.483704202205">
        <ele>0</ele>
        <time>2020-07-23T19:46:47Z</time>
      </trkpt>
      <trkpt lat="51.215471031219" lon="4.484034113789">
        <ele>0.8</ele>
        <time>2020-07-23T19:46:54Z</time>
      </trkpt>
      <trkpt lat="51.21546675645" lon="4.484364025373">
        <ele>0.8</ele>
        <time>2020-07-23T19:47:01Z</time>
      </trkpt>
      <trkpt lat="51.215383188907" lon="4.48465429057">
        <ele>1</ele>
        <time>2020-07-23T19:47:08Z</time>
      </trkpt>
    </trkseg>
  </trk>
</gpx>